Time;durP1;ratioP1;P1;durP2;ratioP2;P2;SDS_P1;SDS_P2;PMS_P1;PMS_P2;Temp;Humidity;BMP_temperature;BMP_pressure;BME280_temperature;BME280_humidity;BME280_pressure;Samples;Min_cycle;Max_cycle;Signal;HPM_P1;HPM_P2
2021/10/14 00:01:23;;;;;;;7.68;3.10;;;;;;;;;;5055603;28;20634;-70
2021/10/14 00:04:08;;;;;;;5.70;3.17;;;;;;;;;;5039671;28;20029;-68
2021/10/14 00:06:54;;;;;;;6.38;2.78;;;;;;;;;;5034073;28;20041;-68
2021/10/14 00:09:39;;;;;;;4.97;2.88;;;;;;;;;;5048558;28;20491;-68
2021/10/14 00:12:24;;;;;;;7.45;3.10;;;;;;;;;;5026430;28;20108;-70
2021/10/14 00:15:09;;;;;;;4.82;2.78;;;;;;;;;;5057256;28;20099;-71
2021/10/14 00:17:55;;;;;;;7.05;3.05;;;;;;;;;;5055937;28;20041;-84
2021/10/14 00:20:40;;;;;;;7.22;3.53;;;;;;;;;;5053865;28;20050;-83
2021/10/14 00:23:25;;;;;;;7.68;4.05;;;;;;;;;;5039012;28;20039;-82
2021/10/14 00:26:11;;;;;;;7.38;3.58;;;;;;;;;;5055528;28;20458;-83
2021/10/14 00:28:57;;;;;;;9.13;4.15;;;;;;;;;;5028043;28;20123;-83
2021/10/14 00:31:42;;;;;;;8.15;3.80;;;;;;;;;;5052813;28;20097;-86
2021/10/14 00:34:27;;;;;;;5.72;3.47;;;;;;;;;;5034749;28;20049;-69
2021/10/14 00:37:13;;;;;;;10.48;4.45;;;;;;;;;;5027767;28;20030;-81
2021/10/14 00:39:58;;;;;;;5.72;2.95;;;;;;;;;;5020365;28;20120;-81
2021/10/14 00:42:44;;;;;;;6.90;4.18;;;;;;;;;;5045931;28;20032;-81
2021/10/14 00:45:29;;;;;;;9.60;3.90;;;;;;;;;;5048040;28;20464;-83
2021/10/14 00:48:15;;;;;;;5.40;3.40;;;;;;;;;;5047213;28;20626;-80
2021/10/14 00:51:01;;;;;;;4.78;3.05;;;;;;;;;;5050064;28;20509;-80
2021/10/14 00:53:47;;;;;;;5.82;3.50;;;;;;;;;;5048275;28;20116;-67
2021/10/14 00:56:32;;;;;;;6.03;3.45;;;;;;;;;;5013307;28;20479;-70
2021/10/14 00:59:18;;;;;;;6.40;3.38;;;;;;;;;;5036369;28;20154;-71
2021/10/14 01:02:03;;;;;;;6.55;3.65;;;;;;;;;;5047643;28;20062;-71
2021/10/14 01:04:48;;;;;;;6.30;4.22;;;;;;;;;;5054276;28;20044;-70
2021/10/14 01:07:33;;;;;;;4.80;2.72;;;;;;;;;;5030765;28;20036;-71
2021/10/14 01:10:19;;;;;;;7.30;3.35;;;;;;;;;;5043939;28;20551;-71
2021/10/14 01:13:04;;;;;;;7.18;3.53;;;;;;;;;;5048869;28;20162;-68
2021/10/14 01:15:50;;;;;;;5.97;3.78;;;;;;;;;;5044891;28;20032;-84
2021/10/14 01:18:35;;;;;;;7.00;3.90;;;;;;;;;;5044925;28;20041;-83
2021/10/14 01:21:20;;;;;;;6.00;3.92;;;;;;;;;;5065160;28;20020;-85
2021/10/14 01:24:06;;;;;;;8.05;4.22;;;;;;;;;;5043912;28;20032;-85
2021/10/14 01:26:51;;;;;;;3.97;2.85;;;;;;;;;;5049195;28;20110;-82
2021/10/14 01:29:36;;;;;;;5.72;3.55;;;;;;;;;;5064586;28;20482;-78
2021/10/14 01:32:22;;;;;;;4.97;3.40;;;;;;;;;;5045530;28;20021;-83
2021/10/14 01:35:07;;;;;;;7.28;3.80;;;;;;;;;;5042079;28;20398;-82
2021/10/14 01:37:52;;;;;;;5.57;3.28;;;;;;;;;;5042134;28;20033;-81
2021/10/14 01:40:38;;;;;;;6.70;3.53;;;;;;;;;;5028126;28;20029;-80
2021/10/14 01:43:23;;;;;;;7.07;4.07;;;;;;;;;;5049341;28;20043;-81
2021/10/14 01:46:09;;;;;;;6.38;3.65;;;;;;;;;;5047143;28;20141;-81
2021/10/14 01:48:54;;;;;;;5.55;3.33;;;;;;;;;;5045356;28;20098;-81
2021/10/14 01:51:39;;;;;;;9.25;5.22;;;;;;;;;;5039786;28;20032;-78
2021/10/14 01:54:24;;;;;;;4.70;2.97;;;;;;;;;;5048774;28;20024;-78
2021/10/14 01:57:10;;;;;;;7.63;3.63;;;;;;;;;;5047863;28;20024;-75
2021/10/14 01:59:55;;;;;;;5.28;3.40;;;;;;;;;;5044924;28;20758;-77
2021/10/14 02:02:40;;;;;;;5.90;3.45;;;;;;;;;;5042028;28;20080;-77
2021/10/14 02:05:25;;;;;;;6.65;3.90;;;;;;;;;;5050932;28;20029;-78
2021/10/14 02:08:11;;;;;;;6.05;3.20;;;;;;;;;;5051924;28;20029;-68
2021/10/14 02:10:56;;;;;;;10.68;3.78;;;;;;;;;;5053001;28;20514;-65
2021/10/14 02:13:41;;;;;;;6.18;3.45;;;;;;;;;;5055008;28;20125;-62
2021/10/14 02:16:27;;;;;;;15.52;4.30;;;;;;;;;;5039652;28;20037;-65
2021/10/14 02:19:12;;;;;;;8.82;3.20;;;;;;;;;;5053833;28;20051;-64
2021/10/14 02:21:57;;;;;;;9.18;4.07;;;;;;;;;;5063046;28;20078;-67
2021/10/14 02:24:43;;;;;;;7.43;3.55;;;;;;;;;;5035221;28;20082;-83
2021/10/14 02:27:28;;;;;;;7.82;3.70;;;;;;;;;;5053924;28;20379;-71
2021/10/14 02:30:14;;;;;;;5.50;3.50;;;;;;;;;;5052119;28;20090;-70
2021/10/14 02:32:59;;;;;;;6.50;3.78;;;;;;;;;;5028215;28;20036;-70
2021/10/14 02:35:44;;;;;;;5.93;3.22;;;;;;;;;;5049716;28;20479;-70
2021/10/14 02:38:30;;;;;;;5.45;3.13;;;;;;;;;;5044283;28;20028;-71
2021/10/14 02:41:15;;;;;;;5.95;3.33;;;;;;;;;;5027617;28;20049;-71
2021/10/14 02:44:00;;;;;;;5.00;3.10;;;;;;;;;;5048859;28;20090;-69
2021/10/14 02:46:45;;;;;;;6.35;3.00;;;;;;;;;;5046581;28;20029;-67
2021/10/14 02:49:31;;;;;;;7.20;3.50;;;;;;;;;;5043757;28;20037;-66
2021/10/14 02:52:16;;;;;;;6.35;3.78;;;;;;;;;;5063387;28;20511;-67
2021/10/14 02:55:01;;;;;;;7.43;3.70;;;;;;;;;;5043388;28;20384;-67
2021/10/14 02:57:47;;;;;;;5.13;3.03;;;;;;;;;;5051842;28;20048;-65
2021/10/14 03:00:32;;;;;;;13.73;4.05;;;;;;;;;;5039733;28;20028;-65
2021/10/14 03:03:18;;;;;;;7.28;3.70;;;;;;;;;;5063887;28;20032;-70
2021/10/14 03:06:03;;;;;;;6.63;3.55;;;;;;;;;;5040352;28;20108;-69
2021/10/14 03:08:48;;;;;;;4.90;3.08;;;;;;;;;;5051901;28;20031;-69
2021/10/14 03:11:33;;;;;;;6.97;3.45;;;;;;;;;;5053332;28;20021;-71
2021/10/14 03:14:19;;;;;;;6.45;3.72;;;;;;;;;;5042003;28;20531;-72
2021/10/14 03:17:04;;;;;;;6.18;3.83;;;;;;;;;;5027645;28;20102;-71
2021/10/14 03:19:49;;;;;;;6.03;2.83;;;;;;;;;;5037040;28;20040;-69
2021/10/14 03:22:34;;;;;;;5.75;3.25;;;;;;;;;;5064083;28;20035;-83
2021/10/14 03:25:21;;;;;;;6.30;3.45;;;;;;;;;;5044479;28;20029;-82
2021/10/14 03:28:06;;;;;;;8.02;3.58;;;;;;;;;;5051453;28;20043;-81
2021/10/14 03:30:51;;;;;;;5.22;3.13;;;;;;;;;;5045005;28;20768;-81
2021/10/14 03:33:36;;;;;;;4.28;3.00;;;;;;;;;;5047518;28;20089;-81
2021/10/14 03:36:22;;;;;;;4.93;3.42;;;;;;;;;;5050914;28;20040;-81
2021/10/14 03:39:07;;;;;;;7.65;3.63;;;;;;;;;;5058617;28;20032;-82
2021/10/14 03:41:52;;;;;;;6.68;3.78;;;;;;;;;;5039446;28;20487;-71
2021/10/14 03:44:38;;;;;;;6.60;3.90;;;;;;;;;;5041831;28;20040;-72
2021/10/14 03:47:24;;;;;;;6.95;3.80;;;;;;;;;;5047160;28;20475;-72
2021/10/14 03:50:09;;;;;;;7.82;3.33;;;;;;;;;;5049548;28;20024;-71
2021/10/14 03:52:54;;;;;;;6.45;3.22;;;;;;;;;;5046906;28;20051;-74
2021/10/14 03:55:40;;;;;;;6.55;3.33;;;;;;;;;;5049501;28;20035;-73
2021/10/14 03:58:25;;;;;;;6.97;3.80;;;;;;;;;;5050747;28;20166;-67
2021/10/14 04:01:10;;;;;;;7.30;3.97;;;;;;;;;;5038710;28;20021;-68
2021/10/14 04:03:55;;;;;;;6.68;3.40;;;;;;;;;;5036171;28;20037;-70
2021/10/14 04:06:41;;;;;;;6.97;3.53;;;;;;;;;;5054363;28;20052;-69
2021/10/14 04:09:26;;;;;;;6.88;3.83;;;;;;;;;;5061168;28;20032;-68
2021/10/14 04:12:11;;;;;;;6.97;3.65;;;;;;;;;;5056099;28;20053;-67
2021/10/14 04:14:56;;;;;;;8.70;4.70;;;;;;;;;;5049788;28;20039;-66
2021/10/14 04:17:42;;;;;;;8.63;3.47;;;;;;;;;;5049010;28;20044;-71
2021/10/14 04:20:27;;;;;;;7.60;3.38;;;;;;;;;;5045556;28;20045;-68
2021/10/14 04:23:12;;;;;;;7.47;3.60;;;;;;;;;;5037577;28;20047;-66
2021/10/14 04:25:58;;;;;;;6.38;3.42;;;;;;;;;;5048637;28;20033;-68
2021/10/14 04:28:43;;;;;;;6.10;3.55;;;;;;;;;;5041707;28;20029;-70
2021/10/14 04:31:28;;;;;;;6.60;3.78;;;;;;;;;;5033773;28;20083;-69
2021/10/14 04:34:14;;;;;;;7.78;4.43;;;;;;;;;;5034908;28;20171;-78
2021/10/14 04:37:00;;;;;;;8.02;3.55;;;;;;;;;;5054014;28;20400;-67
2021/10/14 04:39:46;;;;;;;8.68;3.55;;;;;;;;;;5048162;28;20131;-70
2021/10/14 04:42:31;;;;;;;8.20;4.25;;;;;;;;;;5044693;28;20112;-70
2021/10/14 04:45:16;;;;;;;8.93;3.85;;;;;;;;;;5030625;28;20105;-69
2021/10/14 04:48:01;;;;;;;6.80;3.80;;;;;;;;;;5053700;28;20035;-68
2021/10/14 04:50:47;;;;;;;9.98;4.28;;;;;;;;;;5047992;28;20050;-69
2021/10/14 04:53:32;;;;;;;8.55;3.92;;;;;;;;;;5039286;28;20037;-72
2021/10/14 04:56:17;;;;;;;7.88;3.97;;;;;;;;;;5050388;28;21756;-67
2021/10/14 04:59:03;;;;;;;8.52;3.80;;;;;;;;;;5051359;28;20090;-68
2021/10/14 05:01:48;;;;;;;9.68;3.97;;;;;;;;;;5047261;28;20036;-66
2021/10/14 05:04:33;;;;;;;10.02;3.67;;;;;;;;;;5048267;28;20033;-66
2021/10/14 05:07:18;;;;;;;6.18;3.70;;;;;;;;;;5048407;28;20102;-68
2021/10/14 05:10:04;;;;;;;8.57;3.53;;;;;;;;;;5020751;28;20175;-68
2021/10/14 05:12:49;;;;;;;9.40;3.75;;;;;;;;;;5048750;28;20085;-66
2021/10/14 05:15:35;;;;;;;9.02;3.85;;;;;;;;;;5052363;28;20120;-68
2021/10/14 05:18:20;;;;;;;9.52;4.15;;;;;;;;;;5042138;28;20033;-65
2021/10/14 05:21:05;;;;;;;6.57;4.03;;;;;;;;;;5054640;28;20071;-65
2021/10/14 05:23:50;;;;;;;8.07;3.67;;;;;;;;;;5053635;28;20673;-66
2021/10/14 05:26:35;;;;;;;8.27;3.88;;;;;;;;;;5049275;28;20056;-67
2021/10/14 05:29:21;;;;;;;9.02;4.50;;;;;;;;;;5045497;28;20029;-68
2021/10/14 05:32:06;;;;;;;11.13;4.75;;;;;;;;;;5057179;28;20065;-75
2021/10/14 05:34:52;;;;;;;7.60;4.18;;;;;;;;;;5043442;28;20565;-76
2021/10/14 05:37:37;;;;;;;12.57;4.82;;;;;;;;;;5032219;28;20045;-74
2021/10/14 05:40:22;;;;;;;8.07;4.50;;;;;;;;;;5045361;28;20051;-76
2021/10/14 05:43:07;;;;;;;8.23;3.90;;;;;;;;;;5038470;28;20024;-75
2021/10/14 05:45:53;;;;;;;8.15;4.22;;;;;;;;;;5041197;28;20072;-72
2021/10/14 05:48:38;;;;;;;7.78;3.90;;;;;;;;;;5034714;28;20080;-71
2021/10/14 05:51:23;;;;;;;8.60;4.70;;;;;;;;;;5040874;28;20360;-68
2021/10/14 05:54:09;;;;;;;9.02;4.63;;;;;;;;;;5053814;28;20090;-69
2021/10/14 05:56:54;;;;;;;8.20;3.80;;;;;;;;;;5041342;28;20145;-66
2021/10/14 05:59:39;;;;;;;7.43;4.43;;;;;;;;;;5045033;28;20493;-67
2021/10/14 06:02:24;;;;;;;9.05;3.85;;;;;;;;;;5040789;28;20033;-67
2021/10/14 06:05:10;;;;;;;9.25;4.88;;;;;;;;;;5030581;28;20042;-70
2021/10/14 06:07:55;;;;;;;8.05;4.10;;;;;;;;;;5039434;28;20091;-65
2021/10/14 06:10:40;;;;;;;6.03;3.75;;;;;;;;;;5035374;28;20036;-64
2021/10/14 06:13:26;;;;;;;8.30;4.50;;;;;;;;;;5045554;28;20115;-65
2021/10/14 06:16:11;;;;;;;9.52;4.38;;;;;;;;;;5060636;28;20039;-70
2021/10/14 06:18:56;;;;;;;7.03;4.82;;;;;;;;;;5051774;28;20051;-68
2021/10/14 06:21:42;;;;;;;7.97;4.25;;;;;;;;;;5033593;28;20083;-67
2021/10/14 06:24:27;;;;;;;7.63;4.03;;;;;;;;;;5051080;28;20033;-69
2021/10/14 06:27:12;;;;;;;8.07;4.45;;;;;;;;;;5043210;28;20277;-62
2021/10/14 06:29:59;;;;;;;37.60;26.25;;;;;;;;;;5038717;28;20040;-62
2021/10/14 06:32:44;;;;;;;14.10;7.97;;;;;;;;;;5044588;28;20095;-64
2021/10/14 06:35:29;;;;;;;11.90;4.80;;;;;;;;;;5031694;28;20082;-62
2021/10/14 06:38:15;;;;;;;8.23;4.00;;;;;;;;;;5050733;28;20063;-62
2021/10/14 06:41:00;;;;;;;9.70;4.13;;;;;;;;;;5038710;28;20037;-63
2021/10/14 06:43:45;;;;;;;8.52;4.43;;;;;;;;;;5037307;28;20028;-76
2021/10/14 06:46:30;;;;;;;9.23;4.65;;;;;;;;;;5033315;28;20403;-71
2021/10/14 06:49:16;;;;;;;9.75;4.22;;;;;;;;;;5032638;28;20036;-70
2021/10/14 06:52:01;;;;;;;10.23;4.65;;;;;;;;;;5039502;28;20020;-70
2021/10/14 06:54:46;;;;;;;12.50;4.32;;;;;;;;;;5049205;28;20047;-68
2021/10/14 06:57:32;;;;;;;9.32;4.60;;;;;;;;;;5027244;28;20476;-68
2021/10/14 07:00:22;;;;;;;8.95;5.32;;;;;;;;;;5043652;28;20036;-64
2021/10/14 07:03:07;;;;;;;7.03;4.07;;;;;;;;;;5034301;28;20032;-76
2021/10/14 07:05:53;;;;;;;8.77;4.05;;;;;;;;;;5059015;28;20044;-72
2021/10/14 07:08:38;;;;;;;9.00;4.10;;;;;;;;;;5047852;28;20047;-74
2021/10/14 07:11:29;;;;;;;6.85;4.18;;;;;;;;;;5043069;28;20060;-75
2021/10/14 07:14:15;;;;;;;45.00;25.92;;;;;;;;;;5043442;28;20111;-76
2021/10/14 07:17:00;;;;;;;42.00;25.90;;;;;;;;;;5032424;28;20028;-75
2021/10/14 07:19:45;;;;;;;11.18;6.35;;;;;;;;;;5048175;28;20059;-82
2021/10/14 07:22:30;;;;;;;9.90;5.05;;;;;;;;;;5057065;28;20036;-76
2021/10/14 07:25:16;;;;;;;9.20;4.63;;;;;;;;;;5037056;28;20039;-75
2021/10/14 07:28:01;;;;;;;9.75;4.18;;;;;;;;;;5043215;28;20037;-78
2021/10/14 07:30:46;;;;;;;9.60;4.43;;;;;;;;;;5045194;28;20044;-74
2021/10/14 07:33:32;;;;;;;9.80;4.53;;;;;;;;;;5030976;28;20044;-76
2021/10/14 07:36:17;;;;;;;7.68;3.97;;;;;;;;;;5038385;28;20034;-75
2021/10/14 07:39:02;;;;;;;7.97;4.10;;;;;;;;;;5030893;28;20116;-71
2021/10/14 07:41:48;;;;;;;7.40;4.53;;;;;;;;;;5034516;28;20635;-69
2021/10/14 07:44:33;;;;;;;8.02;3.90;;;;;;;;;;5032473;28;20487;-70
2021/10/14 07:47:18;;;;;;;9.73;4.03;;;;;;;;;;5036626;28;20021;-69
2021/10/14 07:50:04;;;;;;;7.47;3.85;;;;;;;;;;5028067;28;20115;-70
2021/10/14 07:52:49;;;;;;;9.32;4.80;;;;;;;;;;5044904;28;20024;-68
2021/10/14 07:55:34;;;;;;;12.75;7.15;;;;;;;;;;5040425;28;20045;-70
2021/10/14 07:58:19;;;;;;;21.20;12.20;;;;;;;;;;5037063;28;20022;-71
2021/10/14 08:01:05;;;;;;;13.40;6.22;;;;;;;;;;5037695;28;20041;-69
2021/10/14 08:03:51;;;;;;;7.15;3.85;;;;;;;;;;5033574;28;20033;-72
2021/10/14 08:06:40;;;;;;;10.25;4.15;;;;;;;;;;5047107;28;20040;-72
2021/10/14 08:09:25;;;;;;;8.70;3.45;;;;;;;;;;5038834;28;20037;-73
2021/10/14 08:12:11;;;;;;;7.32;3.45;;;;;;;;;;5044310;28;20028;-72
2021/10/14 08:14:56;;;;;;;9.10;3.70;;;;;;;;;;5047330;28;20032;-67
2021/10/14 08:17:42;;;;;;;8.98;3.50;;;;;;;;;;5044973;28;20437;-71
2021/10/14 08:20:28;;;;;;;8.20;3.92;;;;;;;;;;5033756;28;20029;-73
2021/10/14 08:23:14;;;;;;;7.95;3.45;;;;;;;;;;5029264;28;20048;-71
2021/10/14 08:25:59;;;;;;;8.15;3.90;;;;;;;;;;5049646;28;20380;-71
2021/10/14 08:28:44;;;;;;;8.10;3.67;;;;;;;;;;5051094;28;20055;-71
2021/10/14 08:31:29;;;;;;;7.35;3.25;;;;;;;;;;5048790;28;20060;-69
2021/10/14 08:34:14;;;;;;;5.85;3.58;;;;;;;;;;5045833;28;20040;-67
2021/10/14 08:37:00;;;;;;;9.57;4.22;;;;;;;;;;5036670;28;20110;-66
2021/10/14 08:39:45;;;;;;;11.40;4.50;;;;;;;;;;5025427;28;20396;-64
2021/10/14 08:42:31;;;;;;;7.75;3.65;;;;;;;;;;5037423;28;20048;-63
2021/10/14 08:45:16;;;;;;;6.20;2.97;;;;;;;;;;5039261;28;20040;-60
2021/10/14 08:48:02;;;;;;;4.75;2.85;;;;;;;;;;5052108;28;20045;-64
2021/10/14 08:50:47;;;;;;;6.50;2.97;;;;;;;;;;5046513;28;20120;-73
2021/10/14 08:53:33;;;;;;;6.82;3.30;;;;;;;;;;5043281;28;20489;-74
2021/10/14 08:56:18;;;;;;;5.05;2.85;;;;;;;;;;5047267;28;20071;-76
2021/10/14 08:59:03;;;;;;;6.80;3.03;;;;;;;;;;5057288;28;20420;-75
2021/10/14 09:02:24;;;;;;;7.07;2.97;;;;;;;;;;5046802;28;20037;-72
2021/10/14 09:05:13;;;;;;;5.55;2.70;;;;;;;;;;4959218;28;20450;-73
2021/10/14 09:07:58;;;;;;;4.33;2.90;;;;;;;;;;5049343;28;20032;-75
2021/10/14 09:10:43;;;;;;;4.22;2.60;;;;;;;;;;5047522;28;20087;-66
2021/10/14 09:13:29;;;;;;;7.00;3.58;;;;;;;;;;5040083;28;20714;-66
2021/10/14 09:16:27;;;;;;;4.22;2.15;;;;;;;;;;5042286;28;20047;-67
2021/10/14 09:19:12;;;;;;;13.18;9.40;;;;;;;;;;5029771;28;20107;-67
2021/10/14 09:22:00;;;;;;;3.13;2.35;;;;;;;;;;5032097;28;20052;-71
2021/10/14 09:24:45;;;;;;;5.90;2.25;;;;;;;;;;5047600;28;20059;-71
2021/10/14 09:27:41;;;;;;;8.52;2.88;;;;;;;;;;5038659;28;20088;-79
2021/10/14 09:30:26;;;;;;;5.72;3.20;;;;;;;;;;5039959;28;20429;-67
2021/10/14 09:33:30;;;;;;;6.50;2.80;;;;;;;;;;5050880;28;20084;-65
2021/10/14 09:36:16;;;;;;;3.92;2.78;;;;;;;;;;5036443;28;20119;-72
2021/10/14 09:39:03;;;;;;;4.80;2.42;;;;;;;;;;5042923;28;20375;-69
2021/10/14 09:41:49;;;;;;;6.82;2.70;;;;;;;;;;5046677;28;20067;-65
2021/10/14 09:44:46;;;;;;;4.78;2.60;;;;;;;;;;5052618;28;20387;-69
2021/10/14 09:47:31;;;;;;;7.90;4.07;;;;;;;;;;5053451;28;20064;-62
2021/10/14 09:50:17;;;;;;;6.88;2.45;;;;;;;;;;5037187;28;20703;-65
2021/10/14 09:53:04;;;;;;;3.63;2.40;;;;;;;;;;5047865;28;20450;-64
2021/10/14 09:55:50;;;;;;;3.25;2.30;;;;;;;;;;5045404;28;20028;-62
2021/10/14 09:58:35;;;;;;;3.17;2.20;;;;;;;;;;5050170;28;20668;-65
2021/10/14 10:01:20;;;;;;;4.10;2.50;;;;;;;;;;5036173;28;20033;-62
2021/10/14 10:04:05;;;;;;;5.45;2.38;;;;;;;;;;5034874;28;20256;-62
2021/10/14 10:06:53;;;;;;;3.60;1.80;;;;;;;;;;5039957;28;20430;-63
2021/10/14 10:09:39;;;;;;;4.38;2.95;;;;;;;;;;5043858;28;20468;-71
2021/10/14 10:12:25;;;;;;;4.00;3.03;;;;;;;;;;5027503;28;20036;-75
2021/10/14 10:15:10;;;;;;;6.80;2.78;;;;;;;;;;5035738;28;20036;-71
2021/10/14 10:17:55;;;;;;;4.78;2.67;;;;;;;;;;5030741;28;20060;-72
2021/10/14 10:20:42;;;;;;;6.57;2.40;;;;;;;;;;5041541;28;20503;-71
2021/10/14 10:23:42;;;;;;;5.03;2.58;;;;;;;;;;5027450;28;20124;-65
2021/10/14 10:26:34;;;;;;;6.38;3.55;;;;;;;;;;5044688;28;20060;-66
2021/10/14 10:29:19;;;;;;;9.82;3.50;;;;;;;;;;5039809;28;20060;-62
2021/10/14 10:32:04;;;;;;;7.45;3.92;;;;;;;;;;5046105;28;20040;-63
2021/10/14 10:34:53;;;;;;;4.05;2.80;;;;;;;;;;5049972;28;20033;-63
2021/10/14 10:37:47;;;;;;;5.45;2.80;;;;;;;;;;5043825;28;20493;-61
2021/10/14 10:40:34;;;;;;;5.03;2.28;;;;;;;;;;5040055;28;20117;-62
2021/10/14 10:43:26;;;;;;;5.30;2.33;;;;;;;;;;5047599;28;20103;-64
2021/10/14 10:46:12;;;;;;;7.07;2.42;;;;;;;;;;5035413;28;20696;-68
2021/10/14 10:49:16;;;;;;;5.93;2.05;;;;;;;;;;5031023;28;20060;-68
2021/10/14 10:52:20;;;;;;;6.70;2.75;;;;;;;;;;5038954;28;20113;-70
2021/10/14 10:55:25;;;;;;;6.60;2.80;;;;;;;;;;5040159;28;20029;-69
2021/10/14 10:58:14;;;;;;;3.58;2.03;;;;;;;;;;5043517;28;20061;-71
2021/10/14 11:01:00;;;;;;;4.03;1.85;;;;;;;;;;5041256;28;20063;-71
2021/10/14 11:03:49;;;;;;;3.25;1.90;;;;;;;;;;5036467;28;20043;-64
2021/10/14 11:06:36;;;;;;;5.85;2.40;;;;;;;;;;5048787;28;20040;-64
2021/10/14 11:09:27;;;;;;;6.97;2.40;;;;;;;;;;5037232;28;20033;-63
2021/10/14 11:12:17;;;;;;;6.10;2.00;;;;;;;;;;5044082;28;20032;-63
2021/10/14 11:15:13;;;;;;;5.93;2.20;;;;;;;;;;5041456;28;20048;-63
2021/10/14 11:17:59;;;;;;;8.07;2.45;;;;;;;;;;5035701;28;20379;-66
2021/10/14 11:20:52;;;;;;;3.88;2.30;;;;;;;;;;5037971;28;20506;-63
2021/10/14 11:23:39;;;;;;;6.32;2.20;;;;;;;;;;5040006;28;20069;-71
2021/10/14 11:26:32;;;;;;;2.95;2.03;;;;;;;;;;5046730;28;20518;-68
2021/10/14 11:29:19;;;;;;;5.68;2.40;;;;;;;;;;5028558;28;20548;-69
2021/10/14 11:32:07;;;;;;;4.65;2.33;;;;;;;;;;5017833;28;20030;-71
2021/10/14 11:34:52;;;;;;;4.18;2.03;;;;;;;;;;5048521;28;20847;-71
2021/10/14 11:37:38;;;;;;;5.47;2.90;;;;;;;;;;5035017;28;20032;-64
2021/10/14 11:40:36;;;;;;;3.58;1.90;;;;;;;;;;5047685;28;20025;-64
2021/10/14 11:43:25;;;;;;;6.85;2.60;;;;;;;;;;5043819;28;20058;-64
2021/10/14 11:46:21;;;;;;;6.32;2.80;;;;;;;;;;5040247;28;20033;-66
2021/10/14 11:49:07;;;;;;;5.53;2.92;;;;;;;;;;5030716;28;20044;-63
2021/10/14 11:51:53;;;;;;;3.17;2.47;;;;;;;;;;5037990;28;20079;-62
2021/10/14 11:54:39;;;;;;;4.47;2.70;;;;;;;;;;5031654;28;20036;-64
2021/10/14 11:57:31;;;;;;;4.15;2.70;;;;;;;;;;5030632;28;20043;-68
2021/10/14 12:00:16;;;;;;;5.63;3.00;;;;;;;;;;5047126;28;20113;-70
2021/10/14 12:03:01;;;;;;;4.93;2.97;;;;;;;;;;5033915;28;20044;-68
2021/10/14 12:05:47;;;;;;;5.57;2.90;;;;;;;;;;5044415;28;20044;-72
2021/10/14 12:08:32;;;;;;;6.32;2.70;;;;;;;;;;5048446;28;20035;-70
2021/10/14 12:11:19;;;;;;;4.13;2.53;;;;;;;;;;5039896;28;20038;-70
2021/10/14 12:14:04;;;;;;;6.97;2.40;;;;;;;;;;5038304;28;20040;-65
2021/10/14 12:17:03;;;;;;;5.00;2.78;;;;;;;;;;5047565;28;20032;-68
2021/10/14 12:19:51;;;;;;;9.13;2.75;;;;;;;;;;5048223;28;20820;-69
2021/10/14 12:22:41;;;;;;;4.93;2.85;;;;;;;;;;5044174;28;20070;-69
2021/10/14 12:25:39;;;;;;;7.90;2.85;;;;;;;;;;5054624;28;20779;-69
2021/10/14 12:28:24;;;;;;;5.13;2.67;;;;;;;;;;5035849;28;20394;-69
2021/10/14 12:31:11;;;;;;;7.32;2.30;;;;;;;;;;5043742;28;20032;-69
2021/10/14 12:33:58;;;;;;;4.88;3.45;;;;;;;;;;5049450;28;20554;-66
2021/10/14 12:36:44;;;;;;;23.38;18.08;;;;;;;;;;5047543;28;20037;-70
2021/10/14 12:39:29;;;;;;;9.43;4.97;;;;;;;;;;5033331;28;20183;-70
2021/10/14 12:42:17;;;;;;;6.70;2.72;;;;;;;;;;5034642;28;20033;-67
2021/10/14 12:45:03;;;;;;;3.95;2.75;;;;;;;;;;5051925;28;20039;-68
2021/10/14 12:47:51;;;;;;;6.20;2.28;;;;;;;;;;5048666;28;20025;-69
2021/10/14 12:50:55;;;;;;;5.43;2.35;;;;;;;;;;5044367;28;20040;-66
2021/10/14 12:53:48;;;;;;;3.92;2.30;;;;;;;;;;5062482;28;20041;-66
2021/10/14 12:56:46;;;;;;;6.53;2.10;;;;;;;;;;5049563;28;20024;-67
2021/10/14 12:59:32;;;;;;;6.00;2.55;;;;;;;;;;5045744;28;20094;-68
2021/10/14 13:02:18;;;;;;;4.03;2.10;;;;;;;;;;5050599;28;20069;-67
2021/10/14 13:05:03;;;;;;;9.27;2.70;;;;;;;;;;5052535;28;20371;-68
2021/10/14 13:07:48;;;;;;;5.82;4.00;;;;;;;;;;5051263;28;20131;-66
2021/10/14 13:10:34;;;;;;;16.42;11.43;;;;;;;;;;5048676;28;20032;-79
2021/10/14 13:13:19;;;;;;;6.20;2.70;;;;;;;;;;5035579;28;20032;-64
2021/10/14 13:16:05;;;;;;;6.50;2.28;;;;;;;;;;5045693;28;20020;-63
2021/10/14 13:18:50;;;;;;;6.45;2.42;;;;;;;;;;5049636;28;20032;-63
2021/10/14 13:21:36;;;;;;;3.75;2.20;;;;;;;;;;5056853;28;20379;-64
2021/10/14 13:24:21;;;;;;;6.35;2.40;;;;;;;;;;5050174;28;20440;-66
2021/10/14 13:27:06;;;;;;;6.03;2.53;;;;;;;;;;5059049;28;20068;-68
2021/10/14 13:29:51;;;;;;;9.25;3.15;;;;;;;;;;5027961;28;20139;-67
2021/10/14 13:32:37;;;;;;;6.38;2.67;;;;;;;;;;5042968;28;20040;-64
2021/10/14 13:35:22;;;;;;;8.35;3.00;;;;;;;;;;5035162;28;20460;-65
2021/10/14 13:38:07;;;;;;;4.53;2.17;;;;;;;;;;5031671;28;20041;-65
2021/10/14 13:41:03;;;;;;;5.88;2.42;;;;;;;;;;5033234;28;20145;-64
2021/10/14 13:44:35;;;;;;;6.50;2.55;;;;;;;;;;5026147;28;20028;-68
2021/10/14 13:46:56;;;;;;;4.35;2.50;;;;;;;;;;5034746;28;20044;-68
2021/10/14 13:49:41;;;;;;;9.18;2.75;;;;;;;;;;5029534;28;20487;-72
2021/10/14 13:52:26;;;;;;;5.43;2.63;;;;;;;;;;5037982;28;20036;-75
2021/10/14 13:55:11;;;;;;;16.73;9.30;;;;;;;;;;5030259;28;20075;-72
2021/10/14 13:57:57;;;;;;;6.20;3.20;;;;;;;;;;5046743;28;20045;-72
2021/10/14 14:00:44;;;;;;;6.18;2.03;;;;;;;;;;5047626;28;20051;-70
2021/10/14 14:03:29;;;;;;;6.45;2.45;;;;;;;;;;5048416;28;20032;-75
2021/10/14 14:06:15;;;;;;;5.13;2.10;;;;;;;;;;5041633;28;20037;-67
2021/10/14 14:09:00;;;;;;;4.60;2.28;;;;;;;;;;5053669;28;20040;-66
2021/10/14 14:11:46;;;;;;;6.28;2.45;;;;;;;;;;5045731;28;20547;-67
2021/10/14 14:14:32;;;;;;;7.55;1.92;;;;;;;;;;5042817;28;20055;-68
2021/10/14 14:17:17;;;;;;;5.72;2.75;;;;;;;;;;5045304;28;20040;-68
2021/10/14 14:20:02;;;;;;;7.55;2.78;;;;;;;;;;5045943;28;20045;-65
2021/10/14 14:22:48;;;;;;;4.22;2.10;;;;;;;;;;5036647;28;20433;-76
2021/10/14 14:25:33;;;;;;;8.55;2.42;;;;;;;;;;5045541;28;20029;-78
2021/10/14 14:28:19;;;;;;;7.55;2.22;;;;;;;;;;5046952;28;20036;-78
2021/10/14 14:31:04;;;;;;;4.25;2.03;;;;;;;;;;5044041;28;20033;-77
2021/10/14 14:33:49;;;;;;;9.55;4.85;;;;;;;;;;5040894;28;20037;-78
2021/10/14 14:36:34;;;;;;;7.57;3.90;;;;;;;;;;5048179;28;20116;-75
2021/10/14 14:39:20;;;;;;;5.68;2.30;;;;;;;;;;5061288;28;20029;-80
2021/10/14 14:42:06;;;;;;;4.65;2.08;;;;;;;;;;5032905;28;20036;-67
2021/10/14 14:44:51;;;;;;;5.03;2.08;;;;;;;;;;5047442;28;20033;-70
2021/10/14 14:47:49;;;;;;;6.05;2.85;;;;;;;;;;5044514;28;20133;-70
2021/10/14 14:50:41;;;;;;;5.28;2.47;;;;;;;;;;5042194;28;20037;-69
2021/10/14 14:53:26;;;;;;;7.20;2.55;;;;;;;;;;5020174;28;20067;-68
2021/10/14 14:56:12;;;;;;;3.83;2.15;;;;;;;;;;5044535;28;20029;-69
2021/10/14 14:58:57;;;;;;;5.68;2.78;;;;;;;;;;5034505;28;20040;-64
2021/10/14 15:01:43;;;;;;;5.03;2.05;;;;;;;;;;5043248;28;20067;-69
2021/10/14 15:04:28;;;;;;;5.82;3.10;;;;;;;;;;5045722;28;20037;-67
2021/10/14 15:07:13;;;;;;;22.98;16.58;;;;;;;;;;5049447;28;20036;-67
2021/10/14 15:09:59;;;;;;;6.22;3.60;;;;;;;;;;5046180;28;20029;-67
2021/10/14 15:12:44;;;;;;;10.25;3.50;;;;;;;;;;5044960;28;20398;-66
2021/10/14 15:15:29;;;;;;;7.75;2.67;;;;;;;;;;5045060;28;20036;-66
2021/10/14 15:18:15;;;;;;;8.60;3.20;;;;;;;;;;5038579;28;20108;-59
2021/10/14 15:21:00;;;;;;;8.95;3.53;;;;;;;;;;5043316;28;20632;-60
2021/10/14 15:23:45;;;;;;;6.95;3.47;;;;;;;;;;5041525;28;20036;-60
2021/10/14 15:26:31;;;;;;;9.70;3.75;;;;;;;;;;5036917;28;20462;-60
2021/10/14 15:29:16;;;;;;;5.95;3.28;;;;;;;;;;5031640;28;20032;-61
2021/10/14 15:32:03;;;;;;;6.65;2.53;;;;;;;;;;5047181;28;20055;-60
2021/10/14 15:34:49;;;;;;;3.97;2.20;;;;;;;;;;5047185;28;20036;-59
2021/10/14 15:37:36;;;;;;;4.57;2.50;;;;;;;;;;5039001;28;20100;-67
2021/10/14 15:40:22;;;;;;;8.23;2.70;;;;;;;;;;5031115;28;20095;-81
2021/10/14 15:43:10;;;;;;;3.42;2.13;;;;;;;;;;5044981;28;20032;-82
2021/10/14 15:45:56;;;;;;;2.83;1.88;;;;;;;;;;5026543;28;20051;-82
2021/10/14 15:48:41;;;;;;;4.05;2.42;;;;;;;;;;5026213;28;20408;-77
2021/10/14 15:51:26;;;;;;;5.18;2.10;;;;;;;;;;5025291;28;20070;-80
2021/10/14 15:54:12;;;;;;;5.95;2.30;;;;;;;;;;5039623;28;20094;-75
2021/10/14 15:56:57;;;;;;;5.50;2.28;;;;;;;;;;5039909;28;20029;-63
2021/10/14 15:59:42;;;;;;;4.53;2.63;;;;;;;;;;5041971;28;20036;-64
2021/10/14 16:02:28;;;;;;;8.65;2.83;;;;;;;;;;5044397;28;20094;-65
2021/10/14 16:05:13;;;;;;;6.10;2.67;;;;;;;;;;5032505;28;20065;-64
2021/10/14 16:07:58;;;;;;;6.68;2.45;;;;;;;;;;5049400;28;20036;-62
2021/10/14 16:10:45;;;;;;;5.35;2.65;;;;;;;;;;5046133;28;20044;-64
2021/10/14 16:13:30;;;;;;;7.30;3.17;;;;;;;;;;5056623;28;20035;-76
2021/10/14 16:16:15;;;;;;;7.03;3.13;;;;;;;;;;5043700;28;20415;-69
2021/10/14 16:19:01;;;;;;;8.50;3.83;;;;;;;;;;5028439;28;20391;-66
2021/10/14 16:21:46;;;;;;;6.25;2.60;;;;;;;;;;5023231;28;20029;-67
2021/10/14 16:24:31;;;;;;;6.03;2.60;;;;;;;;;;5025339;28;20609;-69
2021/10/14 16:27:17;;;;;;;7.90;3.53;;;;;;;;;;5036042;28;20025;-66
2021/10/14 16:30:03;;;;;;;5.47;3.20;;;;;;;;;;5059422;28;20115;-67
2021/10/14 16:35:45;;;;;;;6.43;3.25;;;;;;;;;;5033798;28;20421;-69
2021/10/14 16:38:31;;;;;;;5.70;3.20;;;;;;;;;;5033914;28;20032;-69